createdAt,value
2023-01-30T00:01:30.251Z,100310.91
2023-01-30T00:04:13.893Z,100318.69
2023-01-30T00:06:58.490Z,100313.53
2023-01-30T00:09:38.142Z,100310.69
2023-01-30T00:12:20.669Z,100295.84
2023-01-30T00:15:01.048Z,100305.72
2023-01-30T00:17:47.344Z,100300.69
2023-01-30T00:20:22.165Z,100301.19
2023-01-30T00:23:05.784Z,100304.75
2023-01-30T00:25:56.735Z,100305.41
2023-01-30T00:28:39.603Z,100300.97
2023-01-30T00:31:20.085Z,100291.03
2023-01-30T00:34:03.006Z,100298.56
2023-01-30T00:36:49.371Z,100304.94
2023-01-30T00:39:31.146Z,100298.09
2023-01-30T00:42:24.718Z,100306.13
2023-01-30T00:45:18.194Z,100299.69
2023-01-30T00:48:03.178Z,100307.25
2023-01-30T00:50:46.847Z,100298.06
2023-01-30T00:53:21.255Z,100295.22
2023-01-30T00:56:09.483Z,100292.72
2023-01-30T00:58:47.482Z,100285.66
2023-01-30T01:01:27.953Z,100279.66
2023-01-30T01:04:04.994Z,100285.00
2023-01-30T01:06:39.136Z,100282.47
2023-01-30T01:09:31.732Z,100280.91
2023-01-30T01:12:13.340Z,100277.38
2023-01-30T01:14:48.885Z,100272.22
2023-01-30T01:17:32.738Z,100266.75
2023-01-30T01:20:13.808Z,100269.88
2023-01-30T01:23:06.879Z,100269.03
2023-01-30T01:25:47.562Z,100261.56
2023-01-30T01:28:22.836Z,100258.19
2023-01-30T01:30:58.929Z,100252.72
2023-01-30T01:33:34.371Z,100254.88
2023-01-30T01:36:29.430Z,100245.13
2023-01-30T01:39:22.683Z,100239.22
2023-01-30T01:42:07.314Z,100237.34
2023-01-30T01:45:22.268Z,100235.06
2023-01-30T01:48:15.621Z,100228.63
2023-01-30T01:51:19.193Z,100230.72
2023-01-30T01:54:05.639Z,100225.03
2023-01-30T01:56:46.092Z,100212.78
2023-01-30T01:59:56.071Z,100205.63
2023-01-30T02:02:31.224Z,100204.16
2023-01-30T02:05:11.524Z,100192.34
2023-01-30T02:07:53.253Z,100193.00
2023-01-30T02:10:58.661Z,100186.91
2023-01-30T02:13:39.614Z,100183.72
2023-01-30T02:16:16.025Z,100184.84
2023-01-30T02:18:56.335Z,100177.94
2023-01-30T02:21:58.988Z,100171.53
2023-01-30T02:24:43.742Z,100174.88
2023-01-30T02:27:51.382Z,100172.25
2023-01-30T02:30:39.597Z,100155.94
2023-01-30T02:33:39.610Z,100153.69
2023-01-30T02:36:32.044Z,100151.22
2023-01-30T02:39:26.902Z,100146.50
2023-01-30T02:42:08.870Z,100153.31
2023-01-30T02:44:53.584Z,100141.66
2023-01-30T02:47:42.127Z,100136.91
2023-01-30T02:50:35.025Z,100134.50
2023-01-30T02:53:18.682Z,100134.25
2023-01-30T02:55:59.230Z,100120.41
2023-01-30T02:58:40.012Z,100114.25
2023-01-30T03:01:31.966Z,100126.66
2023-01-30T03:04:31.993Z,100127.44
2023-01-30T03:07:57.264Z,100117.22
2023-01-30T03:11:03.991Z,100115.34
2023-01-30T03:14:06.650Z,100115.63
2023-01-30T03:16:46.891Z,100120.34
2023-01-30T03:19:31.079Z,100110.53
2023-01-30T03:22:14.342Z,100109.50
2023-01-30T03:24:57.041Z,100107.88
2023-01-30T03:27:40.199Z,100103.00
2023-01-30T03:30:24.591Z,100105.63
2023-01-30T03:33:10.380Z,100106.66
2023-01-30T03:35:59.514Z,100100.03
2023-01-30T03:38:31.553Z,100104.16
2023-01-30T03:41:13.186Z,100103.00
2023-01-30T03:43:54.788Z,100102.81
2023-01-30T03:46:32.729Z,100103.91
2023-01-30T03:49:12.818Z,100102.41
2023-01-30T03:51:56.092Z,100089.97
2023-01-30T03:54:36.824Z,100089.16
2023-01-30T03:57:33.621Z,100089.31
2023-01-30T04:00:10.779Z,100083.22
2023-01-30T04:02:52.096Z,100083.88
2023-01-30T04:05:31.318Z,100090.91
2023-01-30T04:08:28.082Z,100082.72
2023-01-30T04:11:09.294Z,100078.44
2023-01-30T04:14:06.828Z,100076.72
2023-01-30T04:16:57.988Z,100071.66
2023-01-30T04:19:52.798Z,100073.81
2023-01-30T04:22:47.440Z,100070.06
2023-01-30T04:25:30.157Z,100065.22
2023-01-30T04:28:08.474Z,100067.53
2023-01-30T04:30:49.501Z,100065.56
2023-01-30T04:33:56.483Z,100063.22
2023-01-30T04:36:36.962Z,100054.50
2023-01-30T04:39:12.935Z,100054.69
2023-01-30T04:41:45.963Z,100049.75
2023-01-30T04:44:32.869Z,100043.34
2023-01-30T04:47:30.881Z,100038.09
2023-01-30T04:50:11.789Z,100035.66
2023-01-30T04:52:55.379Z,100031.91
2023-01-30T04:55:31.110Z,100033.34
2023-01-30T04:58:15.172Z,100038.22
2023-01-30T05:00:59.180Z,100034.28
2023-01-30T05:03:40.923Z,100030.50
2023-01-30T05:06:21.088Z,100037.13
2023-01-30T05:09:09.397Z,100029.25
2023-01-30T05:11:58.649Z,100031.50
2023-01-30T05:14:36.522Z,100034.56
2023-01-30T05:17:32.564Z,100031.25
2023-01-30T05:20:09.647Z,100024.41
2023-01-30T05:22:54.856Z,100025.56
2023-01-30T05:25:33.290Z,100020.41
2023-01-30T05:28:16.112Z,100023.88
2023-01-30T05:30:52.393Z,100016.75
2023-01-30T05:33:29.683Z,100017.81
2023-01-30T05:36:19.172Z,100016.44
2023-01-30T05:38:59.673Z,100022.28
2023-01-30T05:41:39.176Z,100019.56
2023-01-30T05:44:17.373Z,100006.13
2023-01-30T05:46:50.244Z,100002.00
2023-01-30T05:49:39.203Z,100008.38
2023-01-30T05:52:17.741Z,100004.16
2023-01-30T05:54:58.071Z,100014.22
2023-01-30T05:57:36.820Z,100018.81
2023-01-30T06:00:13.186Z,100019.47
2023-01-30T06:03:07.302Z,100018.81
2023-01-30T06:05:53.589Z,100007.28
2023-01-30T06:08:40.512Z,100009.34
2023-01-30T06:11:20.073Z,100008.72
2023-01-30T06:13:55.373Z,100012.38
2023-01-30T06:16:32.166Z,99998.13
2023-01-30T06:19:14.652Z,99998.84
2023-01-30T06:21:51.487Z,100008.16
2023-01-30T06:24:33.459Z,100000.69
2023-01-30T06:27:20.097Z,100012.50
2023-01-30T06:30:05.423Z,100010.00
2023-01-30T06:32:45.113Z,99999.13
2023-01-30T06:35:29.206Z,99985.34
2023-01-30T06:38:09.605Z,99989.59
2023-01-30T06:40:57.605Z,99987.72
2023-01-30T06:43:35.942Z,99989.00
2023-01-30T06:46:19.048Z,99979.97
2023-01-30T06:48:59.516Z,99982.91
2023-01-30T06:51:42.996Z,99982.56
2023-01-30T06:54:23.396Z,99980.13
2023-01-30T06:57:04.538Z,99983.78
2023-01-30T06:59:42.963Z,99975.38
2023-01-30T07:02:21.183Z,99976.09
2023-01-30T07:05:10.326Z,99971.63
2023-01-30T07:07:48.587Z,99974.19
2023-01-30T07:10:32.455Z,99976.19
2023-01-30T07:13:09.413Z,99973.59
2023-01-30T07:15:56.622Z,99980.06
2023-01-30T07:18:35.289Z,99970.75
2023-01-30T07:21:17.965Z,99968.63
2023-01-30T07:23:57.806Z,99966.31
2023-01-30T07:26:46.791Z,99969.81
2023-01-30T07:29:28.060Z,99977.03
2023-01-30T07:32:06.238Z,99972.34
2023-01-30T07:34:37.341Z,99977.00
2023-01-30T07:37:19.070Z,99966.91
2023-01-30T07:40:00.122Z,99968.81
2023-01-30T07:42:39.192Z,99966.03
2023-01-30T07:45:45.056Z,99952.91
2023-01-30T07:48:22.640Z,99960.06
2023-01-30T07:51:05.981Z,99963.72
2023-01-30T07:53:41.949Z,99969.56
2023-01-30T07:56:24.911Z,99964.81
2023-01-30T07:59:05.754Z,99964.03
2023-01-30T08:01:46.594Z,99962.94
2023-01-30T08:04:32.934Z,99947.94
2023-01-30T08:07:13.714Z,99946.38
2023-01-30T08:09:51.532Z,99930.69
2023-01-30T08:12:29.185Z,99906.28
2023-01-30T08:15:10.830Z,99882.38
2023-01-30T08:18:03.641Z,99877.28
2023-01-30T08:20:37.137Z,99880.53
2023-01-30T08:23:16.719Z,99874.97
2023-01-30T08:25:59.979Z,99876.81
2023-01-30T08:28:43.582Z,99862.88
2023-01-30T08:31:22.241Z,99864.28
2023-01-30T08:34:00.369Z,99866.56
2023-01-30T08:36:35.281Z,99871.84
2023-01-30T08:39:11.698Z,99880.78
2023-01-30T08:41:52.125Z,99882.63
2023-01-30T08:44:33.453Z,99878.16
2023-01-30T08:47:08.168Z,99878.97
2023-01-30T08:49:45.964Z,99874.66
2023-01-30T08:52:34.356Z,99879.81
2023-01-30T08:55:17.768Z,99873.53
2023-01-30T08:58:01.519Z,99870.88
2023-01-30T09:00:39.303Z,99875.88
2023-01-30T09:03:23.931Z,99867.63
2023-01-30T09:06:07.858Z,99865.78
2023-01-30T09:08:42.789Z,99864.66
2023-01-30T09:11:21.408Z,99856.56
2023-01-30T09:14:01.725Z,99862.50
2023-01-30T09:16:39.676Z,99866.47
2023-01-30T09:19:17.031Z,99857.22
2023-01-30T09:22:03.101Z,99850.22
2023-01-30T09:24:49.003Z,99841.41
2023-01-30T09:27:25.050Z,99839.41
2023-01-30T09:30:01.035Z,99841.47
2023-01-30T09:32:37.606Z,99820.81
2023-01-30T09:35:15.390Z,99806.75
2023-01-30T09:37:56.277Z,99798.03
2023-01-30T09:40:39.417Z,99798.03
2023-01-30T09:43:58.715Z,99799.94
2023-01-30T09:46:46.427Z,99787.06
2023-01-30T09:50:06.310Z,99783.13
2023-01-30T09:53:02.244Z,99785.09
2023-01-30T09:55:47.302Z,99770.75
2023-01-30T09:58:31.521Z,99767.41
2023-01-30T10:01:10.424Z,99772.31
2023-01-30T10:04:13.283Z,99769.28
2023-01-30T10:07:04.749Z,99766.09
2023-01-30T10:10:09.683Z,99763.56
2023-01-30T10:12:58.951Z,99761.50
2023-01-30T10:15:34.429Z,99752.03
2023-01-30T10:18:19.339Z,99743.63
2023-01-30T10:21:11.553Z,99733.81
2023-01-30T10:24:00.645Z,99740.66
2023-01-30T10:26:42.987Z,99729.06
2023-01-30T10:29:27.960Z,99718.59
2023-01-30T10:32:26.150Z,99710.16
2023-01-30T10:35:08.450Z,99717.44
2023-01-30T10:38:14.122Z,99702.53
2023-01-30T10:41:01.291Z,99702.13
2023-01-30T10:43:47.964Z,99694.41
2023-01-30T10:46:42.343Z,99678.16
2023-01-30T10:49:37.372Z,99663.22
2023-01-30T10:52:34.496Z,99657.41
2023-01-30T10:55:41.629Z,99646.25
2023-01-30T10:58:59.325Z,99650.63
2023-01-30T11:02:19.059Z,99633.00
2023-01-30T11:05:31.399Z,99628.97
2023-01-30T11:08:07.465Z,99618.34
2023-01-30T11:10:42.621Z,99614.38
2023-01-30T11:13:24.639Z,99603.06
2023-01-30T11:16:09.416Z,99606.25
2023-01-30T11:22:02.542Z,99592.13
2023-01-30T11:24:59.969Z,99594.59
2023-01-30T11:27:38.203Z,99591.78
2023-01-30T11:30:18.411Z,99587.97
2023-01-30T11:33:09.939Z,99573.47
2023-01-30T11:36:06.124Z,99569.81
2023-01-30T11:38:57.165Z,99567.47
2023-01-30T11:41:33.919Z,99569.63
2023-01-30T11:44:07.997Z,99561.97
2023-01-30T11:46:51.310Z,99555.81
2023-01-30T11:49:51.995Z,99549.81
2023-01-30T11:52:43.151Z,99544.50
2023-01-30T11:55:34.616Z,99533.38
2023-01-30T11:58:21.294Z,99527.88
2023-01-30T12:00:56.630Z,99520.22
2023-01-30T12:03:35.489Z,99520.53
2023-01-30T12:06:14.392Z,99509.06
2023-01-30T12:08:57.804Z,99512.56
2023-01-30T12:11:47.689Z,99509.91
2023-01-30T12:14:25.473Z,99520.06
2023-01-30T12:17:21.375Z,99494.41
2023-01-30T12:20:13.653Z,99484.28
2023-01-30T12:23:14.737Z,99482.59
2023-01-30T12:26:13.059Z,99475.44
2023-01-30T12:28:47.555Z,99471.00
2023-01-30T12:31:47.087Z,99463.50
2023-01-30T12:34:27.884Z,99468.00
2023-01-30T12:37:16.731Z,99465.31
2023-01-30T12:39:56.767Z,99456.50
2023-01-30T12:43:02.497Z,99452.69
2023-01-30T12:45:46.473Z,99448.00
2023-01-30T12:52:16.201Z,99449.69
2023-01-30T12:54:53.583Z,99441.69
2023-01-30T12:57:37.960Z,99438.72
2023-01-30T13:00:51.204Z,99440.03
2023-01-30T13:03:45.777Z,99440.34
2023-01-30T13:06:23.713Z,99443.53
2023-01-30T13:08:59.236Z,99430.88
2023-01-30T13:11:54.348Z,99433.38
2023-01-30T13:14:51.622Z,99430.88
2023-01-30T13:17:42.378Z,99416.06
2023-01-30T13:20:29.556Z,99414.91
2023-01-30T13:23:13.806Z,99409.75
2023-01-30T13:26:03.949Z,99400.78
2023-01-30T13:28:52.570Z,99411.25
2023-01-30T13:31:40.136Z,99410.75
2023-01-30T13:34:36.668Z,99399.94
2023-01-30T13:37:17.697Z,99401.44
2023-01-30T13:40:03.020Z,99397.94
2023-01-30T13:42:47.021Z,99394.78
2023-01-30T13:45:26.131Z,99389.97
2023-01-30T13:48:34.657Z,99390.81
2023-01-30T13:51:38.940Z,99401.06
2023-01-30T13:54:26.012Z,99395.25
2023-01-30T13:57:11.430Z,99389.44
2023-01-30T14:00:05.097Z,99401.22
2023-01-30T14:03:04.241Z,99396.91
2023-01-30T14:05:52.831Z,99396.91
2023-01-30T14:08:34.271Z,99396.53
2023-01-30T14:11:40.533Z,99400.22
2023-01-30T14:14:41.532Z,99391.75
2023-01-30T14:17:20.019Z,99391.75
2023-01-30T14:20:15.404Z,99391.56
2023-01-30T14:22:57.422Z,99390.41
2023-01-30T14:25:39.333Z,99396.88
2023-01-30T14:28:52.990Z,99403.38
2023-01-30T14:31:55.831Z,99401.38
2023-01-30T14:35:08.009Z,99386.06
2023-01-30T14:37:46.089Z,99381.75
2023-01-30T14:40:28.217Z,99381.03
2023-01-30T14:43:16.892Z,99377.41
2023-01-30T14:46:41.493Z,99376.25
2023-01-30T14:49:49.239Z,99383.75
2023-01-30T14:52:40.411Z,99386.59
2023-01-30T14:55:33.693Z,99374.66
2023-01-30T14:58:19.019Z,99379.97
2023-01-30T15:01:08.220Z,99386.59
2023-01-30T15:03:54.092Z,99380.28
2023-01-30T15:06:38.895Z,99378.97
2023-01-30T15:09:21.518Z,99394.13
2023-01-30T15:12:20.408Z,99400.28
2023-01-30T15:15:33.682Z,99404.59
2023-01-30T15:18:18.812Z,99401.28
2023-01-30T15:21:45.294Z,99390.50
2023-01-30T15:24:38.454Z,99387.50
2023-01-30T15:27:52.443Z,99389.16
2023-01-30T15:30:57.064Z,99387.81
2023-01-30T15:33:32.751Z,99394.63
2023-01-30T15:36:24.555Z,99399.28
2023-01-30T15:39:11.779Z,99392.47
2023-01-30T15:41:47.182Z,99393.47
2023-01-30T15:44:42.579Z,99391.47
2023-01-30T15:48:07.019Z,99390.31
2023-01-30T15:50:44.787Z,99387.16
2023-01-30T15:53:24.063Z,99395.13
2023-01-30T15:56:12.452Z,99388.63
2023-01-30T15:58:59.773Z,99408.09
2023-01-30T16:01:38.773Z,99383.66
2023-01-30T16:04:38.246Z,99388.81
2023-01-30T16:07:29.756Z,99399.78
2023-01-30T16:10:07.790Z,99399.78
2023-01-30T16:12:46.740Z,99392.81
2023-01-30T16:15:28.541Z,99394.66
2023-01-30T16:18:13.496Z,99393.63
2023-01-30T16:21:03.252Z,99391.97
2023-01-30T16:24:05.045Z,99397.63
2023-01-30T16:26:46.727Z,99410.09
2023-01-30T16:29:26.005Z,99417.25
2023-01-30T16:32:02.123Z,99408.59
2023-01-30T16:34:44.829Z,99412.25
2023-01-30T16:37:46.235Z,99408.78
2023-01-30T16:40:42.632Z,99410.91
2023-01-30T16:43:24.034Z,99422.75
2023-01-30T16:46:27.236Z,99418.41
2023-01-30T16:49:16.229Z,99417.25
2023-01-30T16:51:51.432Z,99410.75
2023-01-30T16:54:33.973Z,99417.91
2023-01-30T16:57:19.979Z,99395.81
2023-01-30T17:00:08.123Z,99361.72
2023-01-30T17:02:46.511Z,99391.97
2023-01-30T17:05:31.419Z,99401.63
2023-01-30T17:08:44.848Z,99395.81
2023-01-30T17:11:40.931Z,99405.28
2023-01-30T17:14:19.503Z,99402.94
2023-01-30T17:17:10.499Z,99389.47
2023-01-30T17:19:46.465Z,99389.00
2023-01-30T17:22:27.191Z,99391.47
2023-01-30T17:25:10.280Z,99402.28
2023-01-30T17:27:50.703Z,99397.63
2023-01-30T17:30:33.165Z,99402.75
2023-01-30T17:33:11.191Z,99396.09
2023-01-30T17:35:49.530Z,99386.13
2023-01-30T17:38:29.659Z,99390.44
2023-01-30T17:41:10.756Z,99371.78
2023-01-30T17:43:42.987Z,99377.09
2023-01-30T17:46:22.211Z,99378.56
2023-01-30T17:48:57.076Z,99388.88
2023-01-30T17:51:34.682Z,99396.72
2023-01-30T17:54:21.628Z,99396.72
2023-01-30T17:57:15.182Z,99392.00
2023-01-30T17:59:58.684Z,99398.28
2023-01-30T18:02:45.383Z,99391.31
2023-01-30T18:05:23.226Z,99394.50
2023-01-30T18:08:01.407Z,99392.97
2023-01-30T18:10:53.769Z,99398.78
2023-01-30T18:13:30.794Z,99394.78
2023-01-30T18:16:26.875Z,99404.94
2023-01-30T18:19:08.345Z,99405.66
2023-01-30T18:21:51.522Z,99397.00
2023-01-30T18:24:33.467Z,99399.00
2023-01-30T18:27:14.528Z,99400.66
2023-01-30T18:29:54.334Z,99398.31
2023-01-30T18:32:35.356Z,99403.03
2023-01-30T18:35:16.633Z,99392.97
2023-01-30T18:37:52.428Z,99390.09
2023-01-30T18:40:30.791Z,99389.91
2023-01-30T18:43:11.962Z,99408.50
2023-01-30T18:45:49.832Z,99395.47
2023-01-30T18:48:32.126Z,99403.16
2023-01-30T18:51:22.757Z,99404.31
2023-01-30T18:54:02.643Z,99413.13
2023-01-30T18:56:46.559Z,99424.91
2023-01-30T18:59:26.397Z,99429.25
2023-01-30T19:02:02.127Z,99433.09
2023-01-30T19:04:48.244Z,99428.66
2023-01-30T19:07:23.375Z,99438.81
2023-01-30T19:09:59.532Z,99441.16
2023-01-30T19:12:50.687Z,99444.53
2023-01-30T19:15:25.911Z,99443.50
2023-01-30T19:18:00.722Z,99444.50
2023-01-30T19:20:32.391Z,99440.19
2023-01-30T19:23:17.426Z,99441.66
2023-01-30T19:26:01.751Z,99430.16
2023-01-30T19:28:41.657Z,99424.13
2023-01-30T19:31:19.164Z,99428.50
2023-01-30T19:34:01.079Z,99429.81
2023-01-30T19:36:41.461Z,99440.66
2023-01-30T19:39:25.327Z,99435.56
2023-01-30T19:41:57.519Z,99431.91
2023-01-30T19:44:39.608Z,99438.53
2023-01-30T19:47:21.759Z,99424.34
2023-01-30T19:50:01.671Z,99433.00
2023-01-30T19:52:47.258Z,99430.47
2023-01-30T19:55:21.541Z,99429.13
2023-01-30T19:57:53.980Z,99433.44
2023-01-30T20:00:37.087Z,99429.28
2023-01-30T20:03:16.390Z,99448.75
2023-01-30T20:05:51.725Z,99447.72
2023-01-30T20:08:32.840Z,99446.44
2023-01-30T20:11:22.262Z,99444.25
2023-01-30T20:14:10.005Z,99439.44
2023-01-30T20:16:45.339Z,99426.41
2023-01-30T20:19:24.876Z,99424.41
2023-01-30T20:21:59.261Z,99424.41
2023-01-30T20:24:37.673Z,99409.06
2023-01-30T20:27:15.337Z,99404.56
2023-01-30T20:29:53.338Z,99410.53
2023-01-30T20:32:33.702Z,99406.88
2023-01-30T20:35:21.383Z,99404.25
2023-01-30T20:38:02.290Z,99399.94
2023-01-30T20:40:36.495Z,99400.41
2023-01-30T20:43:18.402Z,99406.09
2023-01-30T20:46:17.458Z,99405.47
2023-01-30T20:48:56.299Z,99412.59
2023-01-30T20:51:38.486Z,99411.38
2023-01-30T20:54:13.124Z,99411.16
2023-01-30T20:56:58.281Z,99407.69
2023-01-30T20:59:38.400Z,99407.78
2023-01-30T21:02:12.133Z,99402.09
2023-01-30T21:04:52.148Z,99384.53
2023-01-30T21:07:34.041Z,99391.16
2023-01-30T21:10:10.428Z,99392.53
2023-01-30T21:12:47.780Z,99384.41
2023-01-30T21:15:22.970Z,99406.41
2023-01-30T21:18:03.780Z,99401.16
2023-01-30T21:20:39.071Z,99403.06
2023-01-30T21:23:17.393Z,99411.00
2023-01-30T21:25:52.657Z,99415.66
2023-01-30T21:28:38.104Z,99415.97
2023-01-30T21:31:18.678Z,99415.81
2023-01-30T21:34:01.958Z,99412.94
2023-01-30T21:36:40.400Z,99412.81
2023-01-30T21:39:38.115Z,99420.84
2023-01-30T21:42:27.091Z,99428.19
2023-01-30T21:45:06.866Z,99423.38
2023-01-30T21:47:44.293Z,99418.91
2023-01-30T21:50:19.720Z,99418.72
2023-01-30T21:53:00.143Z,99418.34
2023-01-30T21:55:36.503Z,99422.84
2023-01-30T21:58:19.866Z,99416.88
2023-01-30T22:01:11.366Z,99426.03
2023-01-30T22:03:54.768Z,99416.44
2023-01-30T22:06:24.809Z,99413.78
2023-01-30T22:09:09.170Z,99416.09
2023-01-30T22:11:55.169Z,99413.94
2023-01-30T22:14:27.920Z,99413.22
2023-01-30T22:17:05.277Z,99409.72
2023-01-30T22:19:48.785Z,99411.06
2023-01-30T22:22:47.188Z,99396.72
2023-01-30T22:25:49.711Z,99404.97
2023-01-30T22:28:27.613Z,99401.38
2023-01-30T22:31:31.738Z,99404.50
2023-01-30T22:34:06.574Z,99409.47
2023-01-30T22:36:40.960Z,99402.00
2023-01-30T22:39:15.974Z,99406.13
2023-01-30T22:41:51.146Z,99404.75
2023-01-30T22:44:39.821Z,99406.75
2023-01-30T22:47:21.421Z,99399.22
2023-01-30T22:50:01.819Z,99405.31
2023-01-30T22:52:45.648Z,99406.19
2023-01-30T22:55:20.818Z,99397.63
2023-01-30T22:58:04.937Z,99390.59
2023-01-30T23:00:42.658Z,99385.66
2023-01-30T23:03:25.777Z,99383.41
2023-01-30T23:06:14.862Z,99396.81
2023-01-30T23:08:53.464Z,99393.59
2023-01-30T23:11:39.224Z,99397.63
2023-01-30T23:14:24.142Z,99383.59
2023-01-30T23:17:18.616Z,99382.94
2023-01-30T23:19:59.209Z,99387.69
2023-01-30T23:22:36.779Z,99379.38
2023-01-30T23:25:13.808Z,99377.25
2023-01-30T23:27:51.408Z,99378.06
2023-01-30T23:30:23.651Z,99381.91
2023-01-30T23:33:03.970Z,99374.34
2023-01-30T23:35:40.200Z,99369.31
2023-01-30T23:38:21.371Z,99367.69
2023-01-30T23:41:07.951Z,99357.88
2023-01-30T23:43:50.179Z,99369.97
2023-01-30T23:46:36.456Z,99373.91
2023-01-30T23:49:21.143Z,99366.94
2023-01-30T23:51:59.179Z,99355.59
2023-01-30T23:54:40.697Z,99346.13
2023-01-30T23:57:24.340Z,99357.00
